Time;durP1;ratioP1;P1;durP2;ratioP2;P2;SDS_P1;SDS_P2;PMS_P1;PMS_P2;Temp;Humidity;BMP_temperature;BMP_pressure;BME280_temperature;BME280_humidity;BME280_pressure;Samples;Min_cycle;Max_cycle;Signal;HPM_P1;HPM_P2
2021/12/06 00:00:47;;;;;;;4.95;2.55;;;7.80;47.10;;;;;;5037429;28;20615;-49
2021/12/06 00:03:20;;;;;;;8.45;2.85;;;7.90;47.20;;;;;;5020240;28;20163;-49
2021/12/06 00:05:48;;;;;;;8.63;3.38;;;7.90;47.30;;;;;;5020289;28;20170;-49
2021/12/06 00:08:15;;;;;;;3.05;1.95;;;7.90;47.10;;;;;;5037265;28;20224;-49
2021/12/06 00:10:43;;;;;;;4.03;3.03;;;7.90;47.10;;;;;;5037371;28;20178;-49
2021/12/06 00:13:11;;;;;;;3.78;2.33;;;8.00;47.10;;;;;;5003507;28;20171;-50
2021/12/06 00:15:38;;;;;;;12.80;2.83;;;7.90;47.10;;;;;;5020234;28;20189;-49
2021/12/06 00:18:06;;;;;;;2.67;1.95;;;8.00;47.00;;;;;;5037276;28;20203;-49
2021/12/06 00:20:33;;;;;;;6.57;2.83;;;8.00;47.00;;;;;;5037057;28;20187;-49
2021/12/06 00:23:00;;;;;;;4.80;2.70;;;7.90;47.10;;;;;;5037282;28;20170;-49
2021/12/06 00:25:28;;;;;;;5.57;2.80;;;8.00;47.10;;;;;;5019767;28;20174;-48
2021/12/06 00:27:55;;;;;;;8.32;3.47;;;8.00;47.00;;;;;;5036848;28;20615;-49
2021/12/06 00:30:23;;;;;;;3.03;2.50;;;8.00;47.20;;;;;;5035954;28;20188;-49
2021/12/06 00:32:50;;;;;;;4.97;1.80;;;8.00;46.90;;;;;;5002490;28;20162;-49
2021/12/06 00:35:21;;;;;;;6.53;3.92;;;8.00;46.80;;;;;;5019518;28;20166;-49
2021/12/06 00:37:58;;;;;;;3.42;2.05;;;8.00;46.80;;;;;;5020480;28;20166;-49
2021/12/06 00:40:30;;;;;;;4.03;1.23;;;8.00;46.80;;;;;;5004161;28;20200;-49
2021/12/06 00:42:57;;;;;;;3.30;2.83;;;8.00;46.80;;;;;;5003669;28;20167;-49
2021/12/06 00:45:25;;;;;;;3.20;1.85;;;8.00;46.70;;;;;;5019650;28;20556;-49
2021/12/06 00:47:53;;;;;;;2.88;2.08;;;8.00;46.70;;;;;;5036482;28;20635;-49
2021/12/06 00:50:24;;;;;;;4.15;2.70;;;8.00;46.80;;;;;;5036596;28;20646;-49
2021/12/06 00:52:52;;;;;;;6.65;1.90;;;7.90;46.90;;;;;;5019710;28;20159;-49
2021/12/06 00:55:21;;;;;;;5.22;2.33;;;7.90;46.90;;;;;;5019434;28;20170;-49
2021/12/06 00:57:52;;;;;;;3.25;2.90;;;7.80;46.80;;;;;;5003516;28;20162;-49
2021/12/06 01:00:23;;;;;;;10.82;4.00;;;7.80;46.90;;;;;;5020094;28;20182;-49
2021/12/06 01:02:52;;;;;;;4.03;2.97;;;7.80;46.80;;;;;;5036373;28;20196;-49
2021/12/06 01:05:23;;;;;;;5.15;2.28;;;7.80;47.00;;;;;;5036271;28;20508;-48
2021/12/06 01:07:54;;;;;;;4.97;2.47;;;7.80;47.00;;;;;;5019293;28;20202;-49
2021/12/06 01:10:23;;;;;;;5.90;3.85;;;7.80;47.00;;;;;;5036181;28;20177;-49
2021/12/06 01:12:51;;;;;;;9.32;3.03;;;7.80;46.90;;;;;;5036586;28;20170;-49
2021/12/06 01:15:19;;;;;;;3.95;2.35;;;7.80;46.80;;;;;;5036095;28;20178;-48
2021/12/06 01:17:47;;;;;;;2.60;1.60;;;7.80;46.70;;;;;;5018789;28;20162;-49
2021/12/06 01:20:20;;;;;;;2.53;1.67;;;7.70;46.70;;;;;;5018923;28;20240;-49
2021/12/06 01:22:56;;;;;;;2.95;2.15;;;7.70;46.70;;;;;;5019315;28;20170;-49
2021/12/06 01:25:45;;;;;;;2.75;1.83;;;7.70;46.70;;;;;;5019998;28;20256;-50
2021/12/06 01:28:33;;;;;;;3.60;1.98;;;7.70;46.80;;;;;;5021386;28;20198;-49
2021/12/06 01:31:13;;;;;;;5.70;2.15;;;7.70;46.90;;;;;;5021255;28;20170;-49
2021/12/06 01:39:16;;;;;;;6.35;2.45;;;7.60;46.90;;;;;;5021259;28;20180;-49
2021/12/06 01:41:57;;;;;;;6.50;3.70;;;7.60;46.90;;;;;;5034456;28;20566;-49
2021/12/06 01:44:32;;;;;;;3.28;1.73;;;7.50;46.90;;;;;;5003402;28;20251;-49
2021/12/06 01:47:05;;;;;;;6.20;4.15;;;7.50;46.90;;;;;;5035718;28;20166;-49
2021/12/06 01:49:36;;;;;;;5.72;2.45;;;7.50;47.20;;;;;;5018292;28;20240;-49
2021/12/06 01:52:08;;;;;;;6.55;3.05;;;7.50;47.00;;;;;;5002817;28;20196;-49
2021/12/06 01:54:36;;;;;;;6.78;4.13;;;7.50;47.10;;;;;;5019308;28;20170;-49
2021/12/06 01:57:04;;;;;;;6.82;3.90;;;7.50;47.10;;;;;;5018046;28;20249;-48
2021/12/06 01:59:31;;;;;;;7.85;3.55;;;7.50;47.10;;;;;;5035315;28;20178;-48
2021/12/06 02:01:59;;;;;;;5.57;1.60;;;7.40;47.10;;;;;;5018298;28;20515;-49
2021/12/06 02:04:29;;;;;;;14.02;3.78;;;7.40;47.20;;;;;;5035093;28;20213;-48
2021/12/06 02:06:58;;;;;;;4.50;2.10;;;7.40;47.10;;;;;;5001442;28;20177;-48
2021/12/06 02:09:27;;;;;;;9.63;4.82;;;7.40;47.20;;;;;;5002193;28;20240;-49
2021/12/06 02:11:58;;;;;;;11.93;2.05;;;7.40;47.30;;;;;;5018256;28;20261;-49
2021/12/06 02:14:34;;;;;;;6.13;2.35;;;7.40;47.30;;;;;;5018297;28;20182;-49
2021/12/06 02:19:39;;;;;;;10.07;4.90;;;7.40;47.10;;;;;;5018061;28;20274;-49
2021/12/06 02:22:08;;;;;;;5.35;3.15;;;7.30;47.00;;;;;;5019728;28;20166;-49
2021/12/06 02:24:37;;;;;;;7.78;4.93;;;7.40;46.90;;;;;;5021468;28;20180;-49
2021/12/06 02:27:07;;;;;;;5.55;3.45;;;7.30;46.70;;;;;;5054798;28;20173;-49
2021/12/06 02:29:34;;;;;;;7.72;2.92;;;7.30;46.80;;;;;;5054759;28;20296;-49
2021/12/06 02:32:09;;;;;;;6.63;5.95;;;7.20;46.50;;;;;;5037557;28;20169;-49
2021/12/06 02:34:45;;;;;;;12.23;4.10;;;7.10;46.70;;;;;;5021872;28;20172;-49
2021/12/06 02:37:15;;;;;;;5.15;2.10;;;7.10;46.70;;;;;;5037612;28;20169;-49
2021/12/06 02:39:43;;;;;;;4.95;2.13;;;7.10;46.80;;;;;;5021469;28;20165;-49
2021/12/06 02:42:14;;;;;;;7.18;4.20;;;7.10;46.90;;;;;;5054630;28;20660;-49
2021/12/06 02:44:43;;;;;;;11.20;6.22;;;7.10;46.80;;;;;;5021668;28;20165;-49
2021/12/06 02:47:11;;;;;;;5.90;3.58;;;7.10;46.90;;;;;;5037522;28;20165;-50
2021/12/06 02:49:38;;;;;;;4.63;2.63;;;7.00;46.80;;;;;;5054553;28;20668;-49
2021/12/06 02:52:07;;;;;;;6.03;2.10;;;7.00;46.90;;;;;;5056617;28;20248;-49
2021/12/06 02:54:35;;;;;;;7.13;5.38;;;7.00;46.90;;;;;;5027667;28;20589;-49
2021/12/06 02:59:51;;;;;;;5.75;2.47;;;7.00;46.80;;;;;;5045037;28;20161;-49
2021/12/06 03:02:21;;;;;;;5.65;3.15;;;6.90;46.70;;;;;;5061072;28;20177;-49
2021/12/06 03:04:49;;;;;;;12.25;2.88;;;6.90;46.90;;;;;;5043714;28;20177;-48
2021/12/06 03:07:20;;;;;;;8.73;2.10;;;6.90;46.90;;;;;;5060975;28;20165;-49
2021/12/06 03:09:51;;;;;;;4.07;2.20;;;6.90;46.90;;;;;;5036637;28;20209;-48
2021/12/06 03:12:22;;;;;;;7.57;3.45;;;6.80;47.00;;;;;;4997683;28;20170;-48
2021/12/06 03:14:54;;;;;;;10.98;3.42;;;6.90;47.10;;;;;;5043554;28;20172;-49
2021/12/06 03:17:23;;;;;;;9.65;3.10;;;6.90;47.10;;;;;;5042103;28;20154;-50
2021/12/06 03:19:51;;;;;;;13.50;4.30;;;6.80;46.90;;;;;;5023814;28;20271;-49
2021/12/06 03:22:19;;;;;;;4.95;1.52;;;6.80;46.90;;;;;;5023873;28;20507;-49
2021/12/06 03:24:47;;;;;;;7.65;2.90;;;6.80;46.90;;;;;;5023868;28;20162;-49
2021/12/06 03:27:15;;;;;;;9.80;2.45;;;6.70;47.10;;;;;;5041102;28;20173;-48
2021/12/06 03:29:43;;;;;;;2.38;1.95;;;6.70;47.00;;;;;;5041077;28;20284;-49
2021/12/06 03:32:11;;;;;;;6.00;5.45;;;6.70;46.90;;;;;;5040881;28;20158;-49
2021/12/06 03:34:39;;;;;;;8.80;3.75;;;6.70;47.10;;;;;;5023614;28;20655;-49
2021/12/06 03:37:08;;;;;;;4.13;2.38;;;6.70;47.10;;;;;;5023728;28;20174;-49
2021/12/06 03:39:41;;;;;;;7.50;2.40;;;6.70;47.10;;;;;;5007442;28;20232;-48
2021/12/06 03:42:09;;;;;;;4.90;2.50;;;6.60;47.00;;;;;;5054139;28;20684;-48
2021/12/06 03:44:37;;;;;;;8.80;5.13;;;6.60;46.90;;;;;;5059943;28;20264;-48
2021/12/06 03:47:12;;;;;;;9.32;4.13;;;6.70;46.90;;;;;;5060912;28;20226;-49
2021/12/06 03:49:42;;;;;;;2.78;1.42;;;6.60;46.90;;;;;;5059893;28;20695;-49
2021/12/06 03:52:10;;;;;;;3.97;2.55;;;6.60;46.90;;;;;;5043541;28;20180;-48
2021/12/06 03:54:38;;;;;;;5.70;2.03;;;6.60;47.00;;;;;;5060783;28;20182;-48
2021/12/06 03:57:06;;;;;;;5.22;3.47;;;6.60;47.00;;;;;;5060934;28;20193;-49
2021/12/06 03:59:35;;;;;;;5.32;3.42;;;6.60;47.00;;;;;;5043332;28;20577;-49
2021/12/06 04:02:03;;;;;;;8.27;4.20;;;6.60;46.90;;;;;;5060702;28;20244;-48
2021/12/06 04:04:30;;;;;;;5.32;4.93;;;6.50;46.80;;;;;;5056534;28;20230;-49
2021/12/06 04:06:58;;;;;;;11.23;5.05;;;6.50;46.90;;;;;;5057447;28;20172;-49
2021/12/06 04:09:25;;;;;;;5.95;3.63;;;6.40;46.90;;;;;;5056427;28;20692;-48
2021/12/06 04:11:53;;;;;;;16.58;6.80;;;6.40;46.90;;;;;;5057357;28;20211;-49
2021/12/06 04:14:21;;;;;;;19.35;3.50;;;6.40;47.00;;;;;;5057504;28;20172;-49
2021/12/06 04:16:48;;;;;;;10.27;4.20;;;6.40;47.00;;;;;;5023515;28;20239;-49
2021/12/06 04:19:16;;;;;;;4.43;3.30;;;6.40;47.00;;;;;;5056363;28;20625;-49
2021/12/06 04:21:45;;;;;;;6.57;3.70;;;6.40;47.00;;;;;;5057247;28;20166;-49
2021/12/06 04:24:13;;;;;;;11.73;5.55;;;6.40;47.10;;;;;;5057150;28;20161;-48
2021/12/06 04:26:40;;;;;;;5.13;3.47;;;6.40;47.10;;;;;;5057153;28;20165;-49
2021/12/06 04:29:09;;;;;;;5.80;4.63;;;6.40;47.10;;;;;;5069447;28;20207;-48
2021/12/06 04:31:46;;;;;;;4.32;3.97;;;6.40;47.10;;;;;;5076104;28;20161;-49
2021/12/06 04:34:14;;;;;;;19.83;4.00;;;6.50;47.10;;;;;;5076199;28;20534;-49
2021/12/06 04:36:44;;;;;;;6.95;3.20;;;6.40;47.00;;;;;;5076124;28;20172;-48
2021/12/06 04:39:14;;;;;;;16.40;3.53;;;6.50;47.20;;;;;;5076892;28;20501;-48
2021/12/06 04:41:43;;;;;;;11.13;5.05;;;6.50;47.20;;;;;;5075679;28;20225;-49
2021/12/06 04:44:11;;;;;;;5.72;3.67;;;6.50;47.10;;;;;;5076808;28;20172;-49
2021/12/06 04:46:38;;;;;;;4.65;2.78;;;6.50;47.10;;;;;;5076708;28;20172;-49
2021/12/06 04:49:06;;;;;;;5.65;3.38;;;6.50;47.10;;;;;;5067101;28;20189;-49
2021/12/06 04:51:34;;;;;;;4.28;2.72;;;6.50;47.00;;;;;;5056703;28;20657;-49
2021/12/06 04:54:02;;;;;;;8.80;3.95;;;6.50;47.00;;;;;;5055837;28;20231;-49
2021/12/06 04:56:32;;;;;;;9.98;2.92;;;6.50;47.00;;;;;;5055666;28;20483;-49
2021/12/06 04:59:15;;;;;;;7.60;2.88;;;6.50;47.00;;;;;;5056536;28;20252;-49
2021/12/06 05:01:43;;;;;;;4.13;2.20;;;6.50;47.10;;;;;;5056490;28;20153;-49
2021/12/06 05:04:16;;;;;;;4.25;2.70;;;6.50;47.10;;;;;;5055562;28;20176;-50
2021/12/06 05:06:47;;;;;;;4.03;2.95;;;6.50;47.10;;;;;;5055502;28;20153;-50
2021/12/06 05:09:26;;;;;;;9.77;2.97;;;6.50;47.10;;;;;;5056229;28;20189;-48
2021/12/06 05:11:54;;;;;;;5.40;2.63;;;6.50;47.00;;;;;;5039339;28;20612;-49
2021/12/06 05:14:23;;;;;;;5.05;4.60;;;6.50;47.00;;;;;;5038750;28;20185;-49
2021/12/06 05:16:52;;;;;;;3.50;3.20;;;6.50;47.00;;;;;;5055214;28;20162;-49
2021/12/06 05:19:20;;;;;;;7.25;3.17;;;6.50;46.90;;;;;;5056089;28;20613;-48
2021/12/06 05:21:48;;;;;;;4.32;3.30;;;6.50;47.00;;;;;;5038790;28;20192;-48
2021/12/06 05:24:16;;;;;;;10.63;3.17;;;6.50;47.00;;;;;;5055136;28;20169;-49
2021/12/06 05:26:44;;;;;;;8.75;4.50;;;6.50;47.00;;;;;;5055181;28;20517;-48
2021/12/06 05:29:17;;;;;;;7.35;4.45;;;6.50;47.10;;;;;;5055899;28;20614;-49
2021/12/06 05:31:54;;;;;;;4.95;3.72;;;6.50;47.10;;;;;;5054977;28;20157;-49
2021/12/06 05:34:28;;;;;;;4.78;2.60;;;6.50;47.10;;;;;;5039688;28;20670;-49
2021/12/06 05:36:57;;;;;;;4.78;2.17;;;6.50;47.20;;;;;;5055715;28;20307;-49
2021/12/06 05:39:30;;;;;;;6.95;3.95;;;6.50;47.10;;;;;;5038375;28;20188;-49
2021/12/06 05:42:00;;;;;;;9.50;4.10;;;6.50;47.10;;;;;;5038450;28;20291;-48
2021/12/06 05:44:29;;;;;;;3.42;3.13;;;6.50;47.80;;;;;;5055601;28;20176;-50
2021/12/06 05:46:56;;;;;;;12.25;4.35;;;6.50;47.10;;;;;;5055776;28;20578;-49
2021/12/06 05:49:25;;;;;;;7.65;3.78;;;6.50;47.00;;;;;;5038155;28;20193;-49
2021/12/06 05:51:53;;;;;;;8.77;5.15;;;6.50;47.00;;;;;;5038406;28;20188;-49
2021/12/06 05:54:21;;;;;;;8.93;2.97;;;6.50;47.10;;;;;;5054697;28;20180;-49
2021/12/06 05:56:49;;;;;;;4.57;3.70;;;6.40;47.00;;;;;;5055293;28;20166;-48
2021/12/06 05:59:17;;;;;;;3.55;3.15;;;6.40;47.10;;;;;;5054454;28;20223;-49
2021/12/06 06:01:48;;;;;;;6.97;4.82;;;6.40;47.10;;;;;;5037954;28;20185;-48
2021/12/06 06:04:15;;;;;;;3.85;2.55;;;6.40;47.20;;;;;;5055203;28;20169;-49
2021/12/06 06:06:43;;;;;;;8.00;4.38;;;6.40;47.10;;;;;;5037962;28;20172;-48
2021/12/06 06:09:10;;;;;;;6.22;2.97;;;6.50;47.20;;;;;;5055157;28;20650;-50
2021/12/06 06:11:38;;;;;;;5.53;3.58;;;6.40;47.10;;;;;;5054354;28;20602;-49
2021/12/06 06:14:06;;;;;;;8.20;2.95;;;6.40;47.00;;;;;;5055083;28;20651;-49
2021/12/06 06:16:45;;;;;;;2.92;2.22;;;6.40;47.10;;;;;;5054180;28;20256;-49
2021/12/06 06:19:14;;;;;;;2.15;1.92;;;6.40;47.10;;;;;;5054892;28;20165;-49
2021/12/06 06:21:42;;;;;;;6.38;3.50;;;6.40;47.20;;;;;;5037865;28;20602;-49
2021/12/06 06:24:09;;;;;;;5.05;2.33;;;6.40;47.20;;;;;;5055014;28;20234;-49
2021/12/06 06:26:37;;;;;;;4.80;3.28;;;6.40;47.20;;;;;;5054276;28;20177;-49
2021/12/06 06:29:04;;;;;;;5.50;2.55;;;6.40;47.20;;;;;;5059911;28;20557;-49
2021/12/06 06:31:31;;;;;;;6.68;3.35;;;6.40;47.10;;;;;;5074912;28;20157;-49
2021/12/06 06:33:59;;;;;;;3.88;2.17;;;6.40;47.10;;;;;;5074785;28;20165;-49
2021/12/06 06:36:27;;;;;;;4.88;2.33;;;6.40;47.20;;;;;;5074930;28;20234;-49
2021/12/06 06:38:54;;;;;;;14.45;2.97;;;6.40;47.30;;;;;;5074851;28;20200;-49
2021/12/06 06:41:25;;;;;;;10.23;3.95;;;6.40;47.30;;;;;;5067767;28;20220;-49
2021/12/06 06:43:52;;;;;;;3.70;3.15;;;6.40;47.30;;;;;;5054641;28;20165;-49
2021/12/06 06:46:19;;;;;;;6.30;3.47;;;6.30;47.20;;;;;;5054644;28;20252;-50
2021/12/06 06:48:46;;;;;;;3.72;3.20;;;6.40;47.30;;;;;;5054585;28;20193;-48
2021/12/06 06:51:14;;;;;;;13.50;5.10;;;6.40;47.30;;;;;;5054637;28;20154;-49
2021/12/06 06:53:42;;;;;;;5.30;2.50;;;6.40;47.20;;;;;;5020958;28;20165;-50
2021/12/06 06:56:10;;;;;;;4.78;1.98;;;6.40;47.20;;;;;;5054482;28;20163;-48
2021/12/06 06:58:37;;;;;;;4.38;2.53;;;6.40;47.30;;;;;;5054552;28;20169;-48
2021/12/06 07:01:05;;;;;;;6.10;2.97;;;6.40;47.10;;;;;;5037224;28;20252;-49
2021/12/06 07:03:33;;;;;;;5.55;4.28;;;6.40;47.20;;;;;;5054644;28;20256;-48
2021/12/06 07:06:01;;;;;;;6.60;3.83;;;6.40;47.10;;;;;;5054488;28;20168;-48
2021/12/06 07:08:29;;;;;;;6.18;2.20;;;6.50;47.30;;;;;;5054198;28;20300;-49
2021/12/06 07:11:00;;;;;;;5.00;4.07;;;6.40;47.10;;;;;;5020713;28;20166;-49
2021/12/06 07:13:28;;;;;;;4.15;2.17;;;6.40;47.20;;;;;;5054241;28;20215;-49
2021/12/06 07:15:55;;;;;;;3.20;2.90;;;6.40;47.20;;;;;;5020772;28;20162;-49
2021/12/06 07:18:23;;;;;;;3.63;3.33;;;6.40;47.30;;;;;;5037057;28;20209;-49
2021/12/06 07:20:50;;;;;;;5.63;3.15;;;6.40;47.20;;;;;;5054421;28;20170;-49
2021/12/06 07:23:17;;;;;;;7.68;3.80;;;6.40;47.10;;;;;;5036892;28;20265;-49
2021/12/06 07:25:44;;;;;;;4.00;2.72;;;6.40;47.10;;;;;;5054344;28;20173;-49
2021/12/06 07:28:11;;;;;;;8.65;2.88;;;6.40;47.10;;;;;;5054149;28;20238;-49
2021/12/06 07:30:39;;;;;;;10.00;2.30;;;6.40;47.10;;;;;;5054252;28;20263;-49
2021/12/06 07:33:06;;;;;;;2.42;1.67;;;6.40;47.10;;;;;;5036850;28;20165;-48
2021/12/06 07:35:34;;;;;;;6.20;4.63;;;6.40;47.10;;;;;;5020568;28;20166;-49
2021/12/06 07:38:03;;;;;;;5.70;3.70;;;6.40;47.10;;;;;;5054124;28;20626;-49
2021/12/06 07:40:32;;;;;;;4.53;3.55;;;6.40;47.10;;;;;;5057312;28;20165;-49
2021/12/06 07:42:59;;;;;;;2.38;1.88;;;6.40;47.10;;;;;;5077952;28;20262;-50
2021/12/06 07:45:27;;;;;;;2.33;2.13;;;6.40;47.10;;;;;;5078061;28;20540;-50
2021/12/06 07:47:54;;;;;;;4.03;2.70;;;6.40;47.20;;;;;;5076979;28;20216;-49
2021/12/06 07:50:23;;;;;;;6.85;3.83;;;6.40;47.20;;;;;;5077703;28;20526;-48
2021/12/06 07:52:52;;;;;;;6.82;3.67;;;6.40;47.30;;;;;;5076930;28;20248;-49
2021/12/06 07:55:22;;;;;;;8.35;2.80;;;6.40;47.20;;;;;;5077944;28;20161;-49
2021/12/06 07:57:50;;;;;;;5.38;4.35;;;6.40;47.10;;;;;;5060397;28;20168;-48
2021/12/06 08:00:20;;;;;;;8.32;3.92;;;6.40;47.10;;;;;;5076769;28;20573;-49
2021/12/06 08:02:48;;;;;;;6.93;4.10;;;6.40;47.10;;;;;;5077510;28;20259;-49
2021/12/06 08:05:34;;;;;;;3.45;2.20;;;6.40;47.20;;;;;;5060183;28;20165;-49
2021/12/06 08:08:24;;;;;;;5.90;3.20;;;6.50;47.20;;;;;;5062199;28;20193;-49
2021/12/06 08:11:02;;;;;;;4.15;2.88;;;6.50;47.00;;;;;;5061365;28;20177;-48
2021/12/06 08:13:33;;;;;;;5.63;2.70;;;6.40;47.10;;;;;;5076344;28;20222;-48
2021/12/06 08:16:04;;;;;;;5.18;3.10;;;6.50;47.20;;;;;;5076518;28;20161;-48
2021/12/06 08:18:32;;;;;;;4.88;4.20;;;6.40;47.00;;;;;;5076539;28;20157;-49
2021/12/06 08:21:00;;;;;;;4.30;3.90;;;6.50;47.20;;;;;;5076337;28;20169;-48
2021/12/06 08:23:29;;;;;;;11.55;4.03;;;6.50;47.30;;;;;;5059725;28;20172;-48
2021/12/06 08:25:56;;;;;;;8.32;3.03;;;6.50;47.40;;;;;;5077107;28;20176;-49
2021/12/06 08:28:25;;;;;;;5.57;4.03;;;6.50;47.30;;;;;;5059672;28;20200;-50
2021/12/06 08:30:53;;;;;;;7.65;3.17;;;6.50;47.30;;;;;;5077049;28;20165;-48
2021/12/06 08:33:21;;;;;;;2.13;1.50;;;6.50;47.60;;;;;;5043326;28;20173;-48
2021/12/06 08:35:53;;;;;;;6.25;4.13;;;6.50;47.00;;;;;;5076204;28;20164;-49
2021/12/06 08:38:24;;;;;;;4.63;2.83;;;6.50;47.00;;;;;;5076966;28;20493;-49
2021/12/06 08:40:53;;;;;;;11.95;2.17;;;6.50;46.90;;;;;;5074255;28;20168;-49
2021/12/06 08:43:22;;;;;;;10.45;2.72;;;6.50;47.10;;;;;;5023464;28;20464;-49
2021/12/06 08:46:00;;;;;;;5.63;3.35;;;6.50;47.00;;;;;;5023772;28;20215;-48
2021/12/06 08:48:32;;;;;;;5.40;3.10;;;6.50;47.10;;;;;;5040191;28;20238;-49
2021/12/06 08:51:05;;;;;;;5.45;3.20;;;6.50;46.90;;;;;;5038652;28;20169;-48
2021/12/06 08:53:34;;;;;;;6.18;4.18;;;6.50;46.80;;;;;;5023422;28;20456;-49
2021/12/06 08:56:01;;;;;;;6.57;3.70;;;6.60;46.80;;;;;;5022524;28;20226;-48
2021/12/06 08:58:29;;;;;;;5.57;3.92;;;6.60;46.90;;;;;;5056660;28;20161;-49
2021/12/06 09:00:57;;;;;;;13.18;4.10;;;6.70;47.00;;;;;;5039106;28;20500;-49
2021/12/06 09:03:24;;;;;;;6.65;3.00;;;6.70;47.00;;;;;;5039013;28;20248;-49
2021/12/06 09:05:56;;;;;;;8.73;2.65;;;6.80;46.90;;;;;;5038895;28;20598;-48
2021/12/06 09:08:25;;;;;;;7.40;3.50;;;6.90;46.80;;;;;;5022705;28;20271;-48
2021/12/06 09:10:53;;;;;;;3.65;2.75;;;7.00;46.70;;;;;;5002656;28;20170;-49
2021/12/06 09:13:24;;;;;;;15.20;3.90;;;7.00;46.50;;;;;;5003202;28;20158;-48
2021/12/06 09:15:55;;;;;;;6.43;4.78;;;7.00;46.60;;;;;;5036297;28;20151;-49
2021/12/06 09:18:23;;;;;;;3.17;2.35;;;7.00;46.50;;;;;;5002624;28;20170;-49
2021/12/06 09:20:53;;;;;;;9.25;6.15;;;7.00;46.60;;;;;;5002833;28;20174;-48
2021/12/06 09:23:20;;;;;;;7.80;3.15;;;7.10;46.60;;;;;;5018877;28;20316;-49
2021/12/06 09:25:48;;;;;;;3.70;3.40;;;7.10;46.70;;;;;;5036024;28;20166;-48
2021/12/06 09:28:17;;;;;;;7.28;4.15;;;7.10;46.60;;;;;;5002544;28;20194;-48
2021/12/06 09:30:46;;;;;;;4.43;3.92;;;7.10;46.60;;;;;;5035841;28;20174;-49
2021/12/06 09:33:15;;;;;;;8.85;6.15;;;7.20;46.40;;;;;;5002669;28;20162;-48
2021/12/06 09:35:45;;;;;;;10.68;4.40;;;7.20;46.30;;;;;;5018483;28;20162;-48
2021/12/06 09:38:16;;;;;;;11.55;4.68;;;7.20;46.60;;;;;;5048580;28;20271;-49
2021/12/06 09:40:50;;;;;;;6.57;3.97;;;7.20;46.50;;;;;;5055679;28;20499;-49
2021/12/06 09:43:17;;;;;;;9.48;4.70;;;7.20;46.10;;;;;;5039194;28;20497;-49
2021/12/06 09:45:47;;;;;;;16.08;5.57;;;7.20;46.30;;;;;;5038242;28;20181;-49
2021/12/06 09:48:16;;;;;;;9.50;7.78;;;7.20;46.00;;;;;;5055462;28;20193;-49
2021/12/06 09:50:54;;;;;;;7.57;4.78;;;7.20;46.10;;;;;;5038359;28;20257;-49
2021/12/06 09:53:25;;;;;;;5.25;4.43;;;7.20;46.10;;;;;;5055436;28;20150;-49
2021/12/06 09:55:56;;;;;;;13.02;5.32;;;7.20;46.10;;;;;;5055270;28;20215;-49
2021/12/06 09:58:23;;;;;;;6.15;4.40;;;7.10;46.30;;;;;;5055378;28;20208;-49
2021/12/06 10:00:55;;;;;;;8.57;6.22;;;7.10;47.10;;;;;;5037858;28;20231;-49
2021/12/06 10:03:26;;;;;;;13.52;6.57;;;7.10;46.50;;;;;;5054713;28;20152;-48
2021/12/06 10:06:01;;;;;;;8.00;6.38;;;7.10;46.30;;;;;;5038297;28;20498;-48
2021/12/06 10:08:30;;;;;;;10.57;6.28;;;7.10;46.20;;;;;;5054995;28;20514;-49
2021/12/06 10:10:58;;;;;;;8.73;5.55;;;7.10;46.20;;;;;;5055198;28;20507;-49
2021/12/06 10:13:27;;;;;;;4.85;4.07;;;7.10;46.40;;;;;;5041424;28;20206;-48
2021/12/06 10:15:54;;;;;;;12.70;5.40;;;7.00;46.20;;;;;;5035216;28;20616;-48
2021/12/06 10:18:22;;;;;;;10.07;5.30;;;7.00;46.40;;;;;;5017805;28;20163;-48
2021/12/06 10:20:50;;;;;;;16.17;4.60;;;7.00;46.40;;;;;;5035015;28;20166;-48
2021/12/06 10:23:19;;;;;;;10.88;4.75;;;7.00;46.00;;;;;;5042312;28;20530;-48
2021/12/06 10:25:49;;;;;;;15.98;5.38;;;7.00;46.10;;;;;;5037752;28;20256;-48
2021/12/06 10:28:19;;;;;;;5.25;3.17;;;6.90;46.40;;;;;;5037408;28;20200;-48
2021/12/06 10:30:55;;;;;;;7.85;4.15;;;6.90;46.40;;;;;;5037564;28;20476;-47
2021/12/06 10:33:26;;;;;;;5.53;3.03;;;6.90;46.50;;;;;;5037493;28;20168;-48
2021/12/06 10:35:57;;;;;;;4.97;3.40;;;6.90;46.50;;;;;;5037609;28;20175;-48
2021/12/06 10:38:28;;;;;;;9.95;4.50;;;6.90;46.50;;;;;;5020946;28;20178;-49
2021/12/06 10:41:11;;;;;;;5.47;4.93;;;6.90;46.50;;;;;;5054639;28;20219;-48
2021/12/06 10:43:41;;;;;;;17.55;5.40;;;6.90;46.40;;;;;;5037070;28;20177;-47
2021/12/06 10:46:09;;;;;;;3.83;2.55;;;6.90;46.50;;;;;;5037241;28;20166;-47
2021/12/06 10:48:38;;;;;;;4.50;3.05;;;6.90;46.40;;;;;;5054517;28;20214;-48
2021/12/06 10:51:11;;;;;;;10.77;4.65;;;6.90;46.50;;;;;;5041072;28;20177;-48
2021/12/06 10:53:47;;;;;;;6.63;5.60;;;6.90;46.50;;;;;;5001588;28;20216;-47
2021/12/06 10:56:22;;;;;;;9.35;4.72;;;6.80;46.50;;;;;;5041231;28;20188;-48
2021/12/06 10:58:51;;;;;;;4.50;4.13;;;6.80;46.40;;;;;;5054394;28;20254;-47
2021/12/06 11:01:32;;;;;;;18.35;5.82;;;6.80;46.50;;;;;;5037170;28;20195;-49
2021/12/06 11:04:02;;;;;;;6.70;4.78;;;6.90;46.40;;;;;;5037908;28;20533;-48
2021/12/06 11:06:36;;;;;;;5.28;3.13;;;6.80;46.10;;;;;;5054550;28;20158;-47
2021/12/06 11:09:05;;;;;;;4.90;2.28;;;6.80;46.10;;;;;;5054136;28;20271;-48
2021/12/06 11:11:37;;;;;;;8.65;3.75;;;6.80;46.00;;;;;;5037258;28;20610;-48
2021/12/06 11:14:08;;;;;;;9.73;4.55;;;6.80;46.30;;;;;;5056900;28;20236;-48
2021/12/06 11:16:39;;;;;;;8.75;4.57;;;6.70;46.00;;;;;;5007425;28;20201;-48
2021/12/06 11:19:16;;;;;;;5.97;3.83;;;6.70;46.10;;;;;;4989057;28;20182;-48
2021/12/06 11:21:55;;;;;;;10.23;4.50;;;6.70;46.20;;;;;;5038556;28;20177;-48
2021/12/06 11:24:39;;;;;;;7.43;4.50;;;6.70;46.30;;;;;;5021048;28;20158;-48
2021/12/06 11:27:14;;;;;;;4.90;2.53;;;6.70;46.20;;;;;;5021304;28;20173;-48
2021/12/06 11:30:08;;;;;;;6.20;3.83;;;6.70;46.20;;;;;;5020990;28;20197;-48
2021/12/06 11:32:40;;;;;;;2.72;2.08;;;6.70;46.40;;;;;;5038183;28;20142;-48
2021/12/06 11:35:16;;;;;;;5.43;3.30;;;6.70;46.40;;;;;;5021436;28;20190;-48
2021/12/06 11:37:50;;;;;;;13.50;6.97;;;6.70;46.20;;;;;;5020962;28;20157;-47
2021/12/06 11:40:25;;;;;;;8.77;2.75;;;6.60;46.10;;;;;;5020774;28;20606;-49
2021/12/06 11:43:03;;;;;;;3.65;2.60;;;6.60;46.20;;;;;;5054738;28;20213;-48
2021/12/06 11:45:56;;;;;;;4.10;3.75;;;6.60;45.90;;;;;;5057919;28;20150;-48
2021/12/06 11:48:26;;;;;;;12.73;4.80;;;6.60;46.00;;;;;;5056829;28;20193;-48
2021/12/06 11:51:04;;;;;;;5.72;3.60;;;6.50;46.20;;;;;;5056789;28;20487;-49
2021/12/06 11:53:37;;;;;;;6.80;3.70;;;6.50;46.20;;;;;;5056996;28;20150;-49
2021/12/06 11:56:14;;;;;;;7.28;6.45;;;6.50;46.30;;;;;;5057780;28;20232;-48
2021/12/06 11:58:46;;;;;;;7.38;2.97;;;6.60;46.40;;;;;;5057633;28;20165;-48
2021/12/06 12:01:40;;;;;;;5.95;3.35;;;6.60;46.60;;;;;;5056625;28;20157;-48
2021/12/06 12:04:19;;;;;;;3.75;3.33;;;6.60;46.40;;;;;;5040540;28;20176;-49
2021/12/06 12:06:47;;;;;;;5.43;2.75;;;6.60;46.30;;;;;;5041227;28;20176;-49
2021/12/06 12:09:28;;;;;;;12.40;7.55;;;6.60;46.40;;;;;;5057375;28;20185;-49
2021/12/06 12:12:05;;;;;;;3.20;2.90;;;6.60;46.30;;;;;;5057346;28;20204;-48
2021/12/06 12:14:49;;;;;;;8.32;4.18;;;6.60;45.90;;;;;;5057480;28;20506;-48
2021/12/06 12:17:22;;;;;;;15.00;6.80;;;6.60;45.90;;;;;;5040906;28;20182;-50
2021/12/06 12:19:53;;;;;;;4.28;3.35;;;6.60;46.00;;;;;;5056582;28;20170;-50
2021/12/06 12:22:22;;;;;;;7.55;5.22;;;6.60;45.80;;;;;;5057234;28;20157;-49
2021/12/06 12:24:55;;;;;;;9.85;4.90;;;6.50;45.90;;;;;;5055403;28;20165;-49
2021/12/06 12:27:34;;;;;;;8.00;2.45;;;6.50;45.90;;;;;;5057406;28;20173;-49
2021/12/06 12:30:04;;;;;;;9.73;2.78;;;6.50;46.10;;;;;;5040999;28;20201;-49
2021/12/06 12:32:32;;;;;;;9.25;3.42;;;6.40;45.80;;;;;;5057044;28;20172;-48
2021/12/06 12:35:06;;;;;;;5.20;3.53;;;6.40;46.00;;;;;;5057060;28;20510;-49
2021/12/06 12:37:35;;;;;;;5.20;2.13;;;6.40;46.10;;;;;;5076190;28;20161;-48
2021/12/06 12:40:17;;;;;;;3.28;2.22;;;6.40;45.90;;;;;;5059793;28;20172;-48
2021/12/06 12:43:01;;;;;;;7.80;3.97;;;6.40;46.00;;;;;;5075450;28;20561;-49
2021/12/06 12:45:43;;;;;;;10.82;3.30;;;6.40;46.10;;;;;;5076012;28;20157;-49
2021/12/06 12:48:12;;;;;;;3.25;1.48;;;6.50;46.10;;;;;;5076919;28;20521;-48
2021/12/06 12:50:40;;;;;;;6.32;3.25;;;6.50;46.00;;;;;;5076695;28;20226;-48
2021/12/06 12:53:15;;;;;;;10.82;3.55;;;6.50;46.00;;;;;;5069392;28;20197;-49
2021/12/06 12:55:48;;;;;;;12.02;5.28;;;6.50;45.90;;;;;;5056433;28;20637;-49
2021/12/06 12:58:24;;;;;;;9.80;3.60;;;6.60;45.90;;;;;;5056687;28;20169;-49
2021/12/06 13:00:54;;;;;;;7.10;3.10;;;6.60;46.10;;;;;;5055644;28;20546;-49
2021/12/06 13:03:32;;;;;;;10.05;4.93;;;6.60;45.10;;;;;;5056530;28;20180;-49
2021/12/06 13:06:15;;;;;;;3.08;2.65;;;6.60;45.40;;;;;;5056284;28;20238;-49
2021/12/06 13:08:43;;;;;;;4.05;3.20;;;6.60;45.50;;;;;;5056283;28;20185;-49
2021/12/06 13:11:11;;;;;;;5.15;2.58;;;6.70;45.20;;;;;;5055518;28;20606;-49
2021/12/06 13:13:45;;;;;;;2.78;1.67;;;6.70;45.10;;;;;;5055483;28;20287;-48
2021/12/06 13:19:17;;;;;;;3.78;2.20;;;6.70;45.40;;;;;;5075355;28;20149;-49
2021/12/06 13:21:54;;;;;;;4.25;3.42;;;6.70;45.30;;;;;;5059562;28;20514;-48
2021/12/06 13:24:21;;;;;;;10.75;4.75;;;6.70;45.40;;;;;;5060538;28;20254;-49
2021/12/06 13:27:01;;;;;;;7.30;4.97;;;6.80;45.30;;;;;;5055897;28;20598;-48